sensor_id;sensor_type;location;lat;lon;timestamp;temperature;humidity
3100;DHT22;1560;52.746;13.474;2023-08-01T00:01:48;17.30;99.90
3100;DHT22;1560;52.746;13.474;2023-08-01T00:04:16;17.30;99.90
3100;DHT22;1560;52.746;13.474;2023-08-01T00:06:45;17.30;99.90
3100;DHT22;1560;52.746;13.474;2023-08-01T00:09:13;17.30;99.90
3100;DHT22;1560;52.746;13.474;2023-08-01T00:11:42;17.30;99.90
3100;DHT22;1560;52.746;13.474;2023-08-01T00:16:48;17.30;99.90
3100;DHT22;1560;52.746;13.474;2023-08-01T00:19:17;17.30;99.90
3100;DHT22;1560;52.746;13.474;2023-08-01T00:21:45;17.20;99.90
3100;DHT22;1560;52.746;13.474;2023-08-01T00:24:14;17.20;99.90
3100;DHT22;1560;52.746;13.474;2023-08-01T00:29:20;17.20;99.90
3100;DHT22;1560;52.746;13.474;2023-08-01T00:31:49;17.20;99.90
3100;DHT22;1560;52.746;13.474;2023-08-01T00:34:17;17.20;99.90
3100;DHT22;1560;52.746;13.474;2023-08-01T00:39:23;17.10;99.90
3100;DHT22;1560;52.746;13.474;2023-08-01T00:41:51;17.10;99.90
3100;DHT22;1560;52.746;13.474;2023-08-01T00:44:20;17.10;99.90
3100;DHT22;1560;52.746;13.474;2023-08-01T00:46:50;17.10;99.90
3100;DHT22;1560;52.746;13.474;2023-08-01T00:49:18;17.10;99.90
3100;DHT22;1560;52.746;13.474;2023-08-01T00:51:48;17.10;99.90
3100;DHT22;1560;52.746;13.474;2023-08-01T00:56:54;17.00;99.90
3100;DHT22;1560;52.746;13.474;2023-08-01T00:59:22;17.10;99.90
3100;DHT22;1560;52.746;13.474;2023-08-01T01:01:51;17.00;99.90
3100;DHT22;1560;52.746;13.474;2023-08-01T01:04:20;17.00;99.90
3100;DHT22;1560;52.746;13.474;2023-08-01T01:09:29;17.00;99.90
3100;DHT22;1560;52.746;13.474;2023-08-01T01:11:59;17.00;99.90
3100;DHT22;1560;52.746;13.474;2023-08-01T01:14:28;16.90;99.90
3100;DHT22;1560;52.746;13.474;2023-08-01T01:16:57;17.00;99.90
3100;DHT22;1560;52.746;13.474;2023-08-01T01:19:27;17.00;99.90
3100;DHT22;1560;52.746;13.474;2023-08-01T01:21:56;16.90;99.90
3100;DHT22;1560;52.746;13.474;2023-08-01T01:24:26;16.90;99.90
3100;DHT22;1560;52.746;13.474;2023-08-01T01:26:55;16.90;99.90
3100;DHT22;1560;52.746;13.474;2023-08-01T01:29:27;16.90;99.90
3100;DHT22;1560;52.746;13.474;2023-08-01T01:34:32;16.90;99.90
3100;DHT22;1560;52.746;13.474;2023-08-01T01:39:37;16.90;99.90
3100;DHT22;1560;52.746;13.474;2023-08-01T01:42:07;17.00;99.90
3100;DHT22;1560;52.746;13.474;2023-08-01T01:44:36;17.00;99.90
3100;DHT22;1560;52.746;13.474;2023-08-01T01:47:06;17.00;99.90
3100;DHT22;1560;52.746;13.474;2023-08-01T01:49:34;16.90;99.90
3100;DHT22;1560;52.746;13.474;2023-08-01T01:52:03;16.90;99.90
3100;DHT22;1560;52.746;13.474;2023-08-01T01:57:09;16.90;99.90
3100;DHT22;1560;52.746;13.474;2023-08-01T01:59:38;16.90;99.90
3100;DHT22;1560;52.746;13.474;2023-08-01T02:02:07;16.90;99.90
3100;DHT22;1560;52.746;13.474;2023-08-01T02:04:35;16.80;99.90
3100;DHT22;1560;52.746;13.474;2023-08-01T02:09:42;16.80;99.90
3100;DHT22;1560;52.746;13.474;2023-08-01T02:12:11;16.80;99.90
3100;DHT22;1560;52.746;13.474;2023-08-01T02:14:41;16.70;99.90
3100;DHT22;1560;52.746;13.474;2023-08-01T02:17:09;16.70;99.90
3100;DHT22;1560;52.746;13.474;2023-08-01T02:19:38;16.80;99.90
3100;DHT22;1560;52.746;13.474;2023-08-01T02:24:44;16.80;99.90
3100;DHT22;1560;52.746;13.474;2023-08-01T02:27:13;16.80;99.90
3100;DHT22;1560;52.746;13.474;2023-08-01T02:29:41;16.80;99.90
3100;DHT22;1560;52.746;13.474;2023-08-01T02:34:48;16.80;99.90
3100;DHT22;1560;52.746;13.474;2023-08-01T02:37:17;16.80;99.90
3100;DHT22;1560;52.746;13.474;2023-08-01T02:39:46;16.80;99.90
3100;DHT22;1560;52.746;13.474;2023-08-01T02:42:14;16.80;99.90
3100;DHT22;1560;52.746;13.474;2023-08-01T02:47:19;16.80;99.90
3100;DHT22;1560;52.746;13.474;2023-08-01T02:49:48;16.70;99.90
3100;DHT22;1560;52.746;13.474;2023-08-01T02:54:53;16.80;99.90
3100;DHT22;1560;52.746;13.474;2023-08-01T02:57:22;16.80;99.90
3100;DHT22;1560;52.746;13.474;2023-08-01T02:59:51;16.90;99.90
3100;DHT22;1560;52.746;13.474;2023-08-01T03:04:57;16.80;99.90
3100;DHT22;1560;52.746;13.474;2023-08-01T03:07:26;16.80;99.90
3100;DHT22;1560;52.746;13.474;2023-08-01T03:09:54;16.80;99.90
3100;DHT22;1560;52.746;13.474;2023-08-01T03:12:23;16.80;99.90
3100;DHT22;1560;52.746;13.474;2023-08-01T03:14:51;16.80;99.90
3100;DHT22;1560;52.746;13.474;2023-08-01T03:17:20;16.90;99.90
3100;DHT22;1560;52.746;13.474;2023-08-01T03:19:49;16.80;99.90
3100;DHT22;1560;52.746;13.474;2023-08-01T03:22:17;16.80;99.90
3100;DHT22;1560;52.746;13.474;2023-08-01T03:27:23;16.80;99.90
3100;DHT22;1560;52.746;13.474;2023-08-01T03:32:30;16.80;99.90
3100;DHT22;1560;52.746;13.474;2023-08-01T03:34:58;16.70;99.90
3100;DHT22;1560;52.746;13.474;2023-08-01T03:37:27;16.70;99.90
3100;DHT22;1560;52.746;13.474;2023-08-01T03:39:56;16.80;99.90
3100;DHT22;1560;52.746;13.474;2023-08-01T03:42:24;16.80;99.90
3100;DHT22;1560;52.746;13.474;2023-08-01T03:44:53;16.80;99.90
3100;DHT22;1560;52.746;13.474;2023-08-01T03:49:59;16.80;99.90
3100;DHT22;1560;52.746;13.474;2023-08-01T03:52:27;16.80;99.90
3100;DHT22;1560;52.746;13.474;2023-08-01T03:54:56;16.90;99.90
3100;DHT22;1560;52.746;13.474;2023-08-01T03:57:25;16.90;99.90
3100;DHT22;1560;52.746;13.474;2023-08-01T03:59:53;16.80;99.90
3100;DHT22;1560;52.746;13.474;2023-08-01T04:02:22;16.80;99.90
3100;DHT22;1560;52.746;13.474;2023-08-01T04:04:51;16.80;99.90
3100;DHT22;1560;52.746;13.474;2023-08-01T04:09:57;16.80;99.90
3100;DHT22;1560;52.746;13.474;2023-08-01T04:12:26;16.80;99.90
3100;DHT22;1560;52.746;13.474;2023-08-01T04:14:55;16.80;99.90
3100;DHT22;1560;52.746;13.474;2023-08-01T04:20:00;16.90;99.90
3100;DHT22;1560;52.746;13.474;2023-08-01T04:22:29;16.90;99.90
3100;DHT22;1560;52.746;13.474;2023-08-01T04:27:35;16.90;99.90
3100;DHT22;1560;52.746;13.474;2023-08-01T04:30:06;17.00;99.90
3100;DHT22;1560;52.746;13.474;2023-08-01T04:32:35;17.00;99.90
3100;DHT22;1560;52.746;13.474;2023-08-01T04:35:05;17.00;99.90
3100;DHT22;1560;52.746;13.474;2023-08-01T04:37:34;17.00;99.90
3100;DHT22;1560;52.746;13.474;2023-08-01T04:40:03;17.00;99.90
3100;DHT22;1560;52.746;13.474;2023-08-01T04:42:31;17.00;99.90
3100;DHT22;1560;52.746;13.474;2023-08-01T04:45:00;17.00;99.90
3100;DHT22;1560;52.746;13.474;2023-08-01T04:47:29;17.10;99.90
3100;DHT22;1560;52.746;13.474;2023-08-01T04:49:57;17.00;99.90
3100;DHT22;1560;52.746;13.474;2023-08-01T04:52:26;17.00;99.90
3100;DHT22;1560;52.746;13.474;2023-08-01T04:57:31;16.90;99.90
3100;DHT22;1560;52.746;13.474;2023-08-01T04:59:59;16.90;99.90
3100;DHT22;1560;52.746;13.474;2023-08-01T05:02:28;17.00;99.90
3100;DHT22;1560;52.746;13.474;2023-08-01T05:04:56;17.10;99.90
3100;DHT22;1560;52.746;13.474;2023-08-01T05:07:25;17.00;99.90
3100;DHT22;1560;52.746;13.474;2023-08-01T05:09:53;17.10;99.90
3100;DHT22;1560;52.746;13.474;2023-08-01T05:14:59;17.10;99.90
3100;DHT22;1560;52.746;13.474;2023-08-01T05:17:28;17.10;99.90
3100;DHT22;1560;52.746;13.474;2023-08-01T05:19:56;17.10;99.90
3100;DHT22;1560;52.746;13.474;2023-08-01T05:22:25;17.20;99.90
3100;DHT22;1560;52.746;13.474;2023-08-01T05:24:53;17.10;99.90
3100;DHT22;1560;52.746;13.474;2023-08-01T05:27:22;17.10;99.90
3100;DHT22;1560;52.746;13.474;2023-08-01T05:29:51;17.10;99.90
3100;DHT22;1560;52.746;13.474;2023-08-01T05:34:56;17.20;99.90
3100;DHT22;1560;52.746;13.474;2023-08-01T05:37:25;17.20;99.90
3100;DHT22;1560;52.746;13.474;2023-08-01T05:39:53;17.20;99.90
3100;DHT22;1560;52.746;13.474;2023-08-01T05:42:22;17.30;99.90
3100;DHT22;1560;52.746;13.474;2023-08-01T05:47:28;17.30;99.90
3100;DHT22;1560;52.746;13.474;2023-08-01T05:49:57;17.40;99.90
3100;DHT22;1560;52.746;13.474;2023-08-01T05:52:25;17.40;99.90
3100;DHT22;1560;52.746;13.474;2023-08-01T05:54:54;17.50;99.90
3100;DHT22;1560;52.746;13.474;2023-08-01T06:00:00;17.50;99.90
3100;DHT22;1560;52.746;13.474;2023-08-01T06:02:28;17.50;99.90
3100;DHT22;1560;52.746;13.474;2023-08-01T06:07:34;17.50;99.90
3100;DHT22;1560;52.746;13.474;2023-08-01T06:10:04;17.60;99.90
3100;DHT22;1560;52.746;13.474;2023-08-01T06:12:33;17.60;99.90
3100;DHT22;1560;52.746;13.474;2023-08-01T06:15:01;17.60;99.90
3100;DHT22;1560;52.746;13.474;2023-08-01T06:17:30;17.60;99.90
3100;DHT22;1560;52.746;13.474;2023-08-01T06:19:58;17.60;99.90
3100;DHT22;1560;52.746;13.474;2023-08-01T06:22:27;17.70;99.90
3100;DHT22;1560;52.746;13.474;2023-08-01T06:24:56;17.60;99.90
3100;DHT22;1560;52.746;13.474;2023-08-01T06:27:24;17.60;99.90
3100;DHT22;1560;52.746;13.474;2023-08-01T06:29:53;17.60;99.90
3100;DHT22;1560;52.746;13.474;2023-08-01T06:32:22;17.70;99.90
3100;DHT22;1560;52.746;13.474;2023-08-01T06:37:28;17.70;99.90
3100;DHT22;1560;52.746;13.474;2023-08-01T06:39:58;17.70;99.90
3100;DHT22;1560;52.746;13.474;2023-08-01T06:42:26;17.70;99.90
3100;DHT22;1560;52.746;13.474;2023-08-01T06:44:55;17.70;99.90
3100;DHT22;1560;52.746;13.474;2023-08-01T06:47:24;17.70;99.90
3100;DHT22;1560;52.746;13.474;2023-08-01T06:49:52;17.70;99.90
3100;DHT22;1560;52.746;13.474;2023-08-01T06:52:21;17.70;99.90
3100;DHT22;1560;52.746;13.474;2023-08-01T06:54:50;17.70;99.90
3100;DHT22;1560;52.746;13.474;2023-08-01T06:57:18;17.70;99.90
3100;DHT22;1560;52.746;13.474;2023-08-01T06:59:47;17.60;99.90
3100;DHT22;1560;52.746;13.474;2023-08-01T07:02:15;17.70;99.90
3100;DHT22;1560;52.746;13.474;2023-08-01T07:04:44;17.70;99.90
3100;DHT22;1560;52.746;13.474;2023-08-01T07:09:50;17.80;99.90
3100;DHT22;1560;52.746;13.474;2023-08-01T07:14:56;17.80;99.90
3100;DHT22;1560;52.746;13.474;2023-08-01T07:17:24;17.80;99.90
3100;DHT22;1560;52.746;13.474;2023-08-01T07:19:53;17.80;99.90
3100;DHT22;1560;52.746;13.474;2023-08-01T07:24:59;17.90;99.90
3100;DHT22;1560;52.746;13.474;2023-08-01T07:27:27;18.00;99.90
3100;DHT22;1560;52.746;13.474;2023-08-01T07:29:56;18.00;99.90
3100;DHT22;1560;52.746;13.474;2023-08-01T07:32:24;18.10;99.90
3100;DHT22;1560;52.746;13.474;2023-08-01T07:34:53;18.10;99.90
3100;DHT22;1560;52.746;13.474;2023-08-01T07:37:22;18.20;99.90
3100;DHT22;1560;52.746;13.474;2023-08-01T07:39:51;18.20;99.90
3100;DHT22;1560;52.746;13.474;2023-08-01T07:42:19;18.20;99.90
3100;DHT22;1560;52.746;13.474;2023-08-01T07:44:48;18.20;99.90
3100;DHT22;1560;52.746;13.474;2023-08-01T07:47:16;18.30;99.90
3100;DHT22;1560;52.746;13.474;2023-08-01T07:49:45;18.30;99.90
3100;DHT22;1560;52.746;13.474;2023-08-01T07:52:13;18.30;99.90
3100;DHT22;1560;52.746;13.474;2023-08-01T07:54:42;18.40;99.90
3100;DHT22;1560;52.746;13.474;2023-08-01T07:57:10;18.50;99.90
3100;DHT22;1560;52.746;13.474;2023-08-01T07:59:39;18.50;99.90
3100;DHT22;1560;52.746;13.474;2023-08-01T08:02:08;18.70;99.90
3100;DHT22;1560;52.746;13.474;2023-08-01T08:04:36;18.70;99.90
3100;DHT22;1560;52.746;13.474;2023-08-01T08:07:06;18.80;99.90
3100;DHT22;1560;52.746;13.474;2023-08-01T08:09:34;18.80;99.90
3100;DHT22;1560;52.746;13.474;2023-08-01T08:12:04;18.90;99.90
3100;DHT22;1560;52.746;13.474;2023-08-01T08:14:32;18.90;99.90
3100;DHT22;1560;52.746;13.474;2023-08-01T08:17:01;18.90;99.90
3100;DHT22;1560;52.746;13.474;2023-08-01T08:19:30;19.00;99.90
3100;DHT22;1560;52.746;13.474;2023-08-01T08:21:58;19.10;99.90
3100;DHT22;1560;52.746;13.474;2023-08-01T08:24:27;19.10;99.90
3100;DHT22;1560;52.746;13.474;2023-08-01T08:26:55;19.10;99.90
3100;DHT22;1560;52.746;13.474;2023-08-01T08:29:24;19.10;99.90
3100;DHT22;1560;52.746;13.474;2023-08-01T08:31:53;19.10;99.90
3100;DHT22;1560;52.746;13.474;2023-08-01T08:34:22;19.10;99.90
3100;DHT22;1560;52.746;13.474;2023-08-01T08:36:50;19.10;99.90
3100;DHT22;1560;52.746;13.474;2023-08-01T08:39:19;19.20;99.90
3100;DHT22;1560;52.746;13.474;2023-08-01T08:41:50;19.20;99.90
3100;DHT22;1560;52.746;13.474;2023-08-01T08:44:20;19.30;99.90
3100;DHT22;1560;52.746;13.474;2023-08-01T08:46:50;19.30;99.90
3100;DHT22;1560;52.746;13.474;2023-08-01T08:49:20;19.40;99.90
3100;DHT22;1560;52.746;13.474;2023-08-01T08:51:49;19.40;99.90
3100;DHT22;1560;52.746;13.474;2023-08-01T08:54:18;19.40;99.90
3100;DHT22;1560;52.746;13.474;2023-08-01T08:59:26;19.40;99.90
3100;DHT22;1560;52.746;13.474;2023-08-01T09:01:55;19.40;99.90
3100;DHT22;1560;52.746;13.474;2023-08-01T09:04:24;19.40;99.90
3100;DHT22;1560;52.746;13.474;2023-08-01T09:09:32;19.50;99.90
3100;DHT22;1560;52.746;13.474;2023-08-01T09:12:01;19.60;99.90
3100;DHT22;1560;52.746;13.474;2023-08-01T09:14:29;19.60;99.90
3100;DHT22;1560;52.746;13.474;2023-08-01T09:19:44;19.50;99.90
3100;DHT22;1560;52.746;13.474;2023-08-01T09:22:13;19.50;99.90
3100;DHT22;1560;52.746;13.474;2023-08-01T09:24:52;19.50;99.90
3100;DHT22;1560;52.746;13.474;2023-08-01T09:27:22;19.50;99.90
3100;DHT22;1560;52.746;13.474;2023-08-01T09:29:50;19.70;99.90
3100;DHT22;1560;52.746;13.474;2023-08-01T09:32:19;19.80;99.90
3100;DHT22;1560;52.746;13.474;2023-08-01T09:37:24;20.10;99.90
3100;DHT22;1560;52.746;13.474;2023-08-01T09:39:54;20.20;99.90
3100;DHT22;1560;52.746;13.474;2023-08-01T09:42:24;20.20;99.90
3100;DHT22;1560;52.746;13.474;2023-08-01T09:44:52;20.20;99.90
3100;DHT22;1560;52.746;13.474;2023-08-01T09:49:57;20.30;99.90
3100;DHT22;1560;52.746;13.474;2023-08-01T09:52:29;20.40;99.90
3100;DHT22;1560;52.746;13.474;2023-08-01T09:54:57;20.40;99.90
3100;DHT22;1560;52.746;13.474;2023-08-01T10:00:08;20.40;99.90
3100;DHT22;1560;52.746;13.474;2023-08-01T10:02:37;20.10;99.90
3100;DHT22;1560;52.746;13.474;2023-08-01T10:05:07;20.00;99.90
3100;DHT22;1560;52.746;13.474;2023-08-01T10:07:37;19.80;99.90
3100;DHT22;1560;52.746;13.474;2023-08-01T10:10:08;19.70;99.90
3100;DHT22;1560;52.746;13.474;2023-08-01T10:15:14;19.60;99.90
3100;DHT22;1560;52.746;13.474;2023-08-01T10:20:21;19.50;99.90
3100;DHT22;1560;52.746;13.474;2023-08-01T10:22:50;19.50;99.90
3100;DHT22;1560;52.746;13.474;2023-08-01T10:25:20;19.60;99.90
3100;DHT22;1560;52.746;13.474;2023-08-01T10:27:59;19.60;99.90
3100;DHT22;1560;52.746;13.474;2023-08-01T10:30:28;19.60;99.90
3100;DHT22;1560;52.746;13.474;2023-08-01T10:32:58;19.60;99.90
3100;DHT22;1560;52.746;13.474;2023-08-01T10:35:37;19.50;99.90
3100;DHT22;1560;52.746;13.474;2023-08-01T10:38:08;19.60;99.90
3100;DHT22;1560;52.746;13.474;2023-08-01T10:43:22;19.50;99.90
3100;DHT22;1560;52.746;13.474;2023-08-01T10:46:01;19.40;99.90
3100;DHT22;1560;52.746;13.474;2023-08-01T10:48:30;19.30;99.90
3100;DHT22;1560;52.746;13.474;2023-08-01T10:50:59;19.30;99.90
3100;DHT22;1560;52.746;13.474;2023-08-01T10:53:38;19.10;99.90
3100;DHT22;1560;52.746;13.474;2023-08-01T10:58:46;18.80;99.90
3100;DHT22;1560;52.746;13.474;2023-08-01T11:01:14;18.60;99.90
3100;DHT22;1560;52.746;13.474;2023-08-01T11:03:43;18.50;99.90
3100;DHT22;1560;52.746;13.474;2023-08-01T11:08:49;18.30;99.90
3100;DHT22;1560;52.746;13.474;2023-08-01T11:13:55;18.30;99.90
3100;DHT22;1560;52.746;13.474;2023-08-01T11:16:24;18.30;99.90
3100;DHT22;1560;52.746;13.474;2023-08-01T11:18:53;18.20;99.90
3100;DHT22;1560;52.746;13.474;2023-08-01T11:21:28;18.00;99.90
3100;DHT22;1560;52.746;13.474;2023-08-01T11:23:57;18.10;99.90
3100;DHT22;1560;52.746;13.474;2023-08-01T11:29:03;18.00;99.90
3100;DHT22;1560;52.746;13.474;2023-08-01T11:31:33;18.00;99.90
3100;DHT22;1560;52.746;13.474;2023-08-01T11:34:01;18.20;99.90
3100;DHT22;1560;52.746;13.474;2023-08-01T11:36:31;18.30;99.90
3100;DHT22;1560;52.746;13.474;2023-08-01T11:39:00;18.40;99.90
3100;DHT22;1560;52.746;13.474;2023-08-01T11:41:29;18.60;99.90
3100;DHT22;1560;52.746;13.474;2023-08-01T11:44:02;18.80;99.90
3100;DHT22;1560;52.746;13.474;2023-08-01T11:46:33;19.10;99.90
3100;DHT22;1560;52.746;13.474;2023-08-01T11:49:02;19.20;99.90
3100;DHT22;1560;52.746;13.474;2023-08-01T11:51:31;19.20;99.90
3100;DHT22;1560;52.746;13.474;2023-08-01T11:54:02;19.20;99.90
3100;DHT22;1560;52.746;13.474;2023-08-01T11:56:31;19.10;99.90
3100;DHT22;1560;52.746;13.474;2023-08-01T11:59:06;19.10;99.90
3100;DHT22;1560;52.746;13.474;2023-08-01T12:01:30;19.10;99.90
3100;DHT22;1560;52.746;13.474;2023-08-01T12:03:59;19.00;99.90
3100;DHT22;1560;52.746;13.474;2023-08-01T12:06:30;19.10;99.90
3100;DHT22;1560;52.746;13.474;2023-08-01T12:11:43;19.10;99.90
3100;DHT22;1560;52.746;13.474;2023-08-01T12:14:13;19.00;99.90
3100;DHT22;1560;52.746;13.474;2023-08-01T12:16:43;19.00;99.90
3100;DHT22;1560;52.746;13.474;2023-08-01T12:21:54;18.80;99.90
3100;DHT22;1560;52.746;13.474;2023-08-01T12:24:22;18.80;99.90
3100;DHT22;1560;52.746;13.474;2023-08-01T12:26:51;18.90;99.90
3100;DHT22;1560;52.746;13.474;2023-08-01T12:29:19;19.10;99.90
3100;DHT22;1560;52.746;13.474;2023-08-01T12:31:49;19.30;99.90
3100;DHT22;1560;52.746;13.474;2023-08-01T12:36:55;19.50;99.90
3100;DHT22;1560;52.746;13.474;2023-08-01T12:39:23;19.50;99.90
3100;DHT22;1560;52.746;13.474;2023-08-01T12:41:53;19.60;99.90
3100;DHT22;1560;52.746;13.474;2023-08-01T12:44:22;19.70;99.90
3100;DHT22;1560;52.746;13.474;2023-08-01T12:46:50;19.70;99.90
3100;DHT22;1560;52.746;13.474;2023-08-01T12:51:56;19.70;99.90
3100;DHT22;1560;52.746;13.474;2023-08-01T12:54:25;19.90;99.90
3100;DHT22;1560;52.746;13.474;2023-08-01T12:56:53;20.00;99.90
3100;DHT22;1560;52.746;13.474;2023-08-01T12:59:22;20.10;99.90
3100;DHT22;1560;52.746;13.474;2023-08-01T13:04:28;20.20;99.90
3100;DHT22;1560;52.746;13.474;2023-08-01T13:06:56;20.30;99.90
3100;DHT22;1560;52.746;13.474;2023-08-01T13:09:25;20.20;99.90
3100;DHT22;1560;52.746;13.474;2023-08-01T13:14:32;20.30;99.90
3100;DHT22;1560;52.746;13.474;2023-08-01T13:17:01;20.30;99.90
3100;DHT22;1560;52.746;13.474;2023-08-01T13:19:30;20.30;99.90
3100;DHT22;1560;52.746;13.474;2023-08-01T13:24:35;20.70;99.90
3100;DHT22;1560;52.746;13.474;2023-08-01T13:27:05;20.70;99.90
3100;DHT22;1560;52.746;13.474;2023-08-01T13:29:35;20.70;99.90
3100;DHT22;1560;52.746;13.474;2023-08-01T13:32:05;20.70;99.90
3100;DHT22;1560;52.746;13.474;2023-08-01T13:34:34;20.70;99.90
3100;DHT22;1560;52.746;13.474;2023-08-01T13:37:03;20.80;99.90
3100;DHT22;1560;52.746;13.474;2023-08-01T13:39:32;20.90;99.90
3100;DHT22;1560;52.746;13.474;2023-08-01T13:42:00;21.00;99.90
3100;DHT22;1560;52.746;13.474;2023-08-01T13:44:29;21.00;99.90
3100;DHT22;1560;52.746;13.474;2023-08-01T13:46:57;20.90;99.90
3100;DHT22;1560;52.746;13.474;2023-08-01T13:49:26;20.90;99.90
3100;DHT22;1560;52.746;13.474;2023-08-01T13:51:54;20.90;99.90
3100;DHT22;1560;52.746;13.474;2023-08-01T13:54:23;20.80;99.90
3100;DHT22;1560;52.746;13.474;2023-08-01T13:56:52;20.90;99.90
3100;DHT22;1560;52.746;13.474;2023-08-01T13:59:21;20.90;99.90
3100;DHT22;1560;52.746;13.474;2023-08-01T14:01:49;20.90;99.90
3100;DHT22;1560;52.746;13.474;2023-08-01T14:04:18;20.80;99.90
3100;DHT22;1560;52.746;13.474;2023-08-01T14:06:47;20.70;99.90
3100;DHT22;1560;52.746;13.474;2023-08-01T14:11:53;20.60;99.90
3100;DHT22;1560;52.746;13.474;2023-08-01T14:14:21;20.60;99.90
3100;DHT22;1560;52.746;13.474;2023-08-01T14:16:50;20.70;99.90
3100;DHT22;1560;52.746;13.474;2023-08-01T14:19:18;20.60;99.90
3100;DHT22;1560;52.746;13.474;2023-08-01T14:21:47;20.50;99.90
3100;DHT22;1560;52.746;13.474;2023-08-01T14:24:15;20.40;99.90
3100;DHT22;1560;52.746;13.474;2023-08-01T14:29:21;20.40;99.90
3100;DHT22;1560;52.746;13.474;2023-08-01T14:31:50;20.30;99.90
3100;DHT22;1560;52.746;13.474;2023-08-01T14:34:19;20.20;99.90
3100;DHT22;1560;52.746;13.474;2023-08-01T14:39:24;20.10;99.90
3100;DHT22;1560;52.746;13.474;2023-08-01T14:41:53;20.10;99.90
3100;DHT22;1560;52.746;13.474;2023-08-01T14:46:59;20.20;99.90
3100;DHT22;1560;52.746;13.474;2023-08-01T14:49:28;20.30;99.90
3100;DHT22;1560;52.746;13.474;2023-08-01T14:51:56;20.40;99.90
3100;DHT22;1560;52.746;13.474;2023-08-01T14:54:25;20.40;99.90
3100;DHT22;1560;52.746;13.474;2023-08-01T14:56:53;20.40;99.90
3100;DHT22;1560;52.746;13.474;2023-08-01T14:59:22;20.40;99.90
3100;DHT22;1560;52.746;13.474;2023-08-01T15:04:28;20.30;99.90
3100;DHT22;1560;52.746;13.474;2023-08-01T15:06:56;20.20;99.90
3100;DHT22;1560;52.746;13.474;2023-08-01T15:12:03;20.10;99.90
3100;DHT22;1560;52.746;13.474;2023-08-01T15:14:31;19.90;99.90
3100;DHT22;1560;52.746;13.474;2023-08-01T15:17:00;19.70;99.90
3100;DHT22;1560;52.746;13.474;2023-08-01T15:19:29;19.50;99.90
3100;DHT22;1560;52.746;13.474;2023-08-01T15:24:35;19.10;99.90
3100;DHT22;1560;52.746;13.474;2023-08-01T15:27:04;19.00;99.90
3100;DHT22;1560;52.746;13.474;2023-08-01T15:29:33;18.90;99.90
3100;DHT22;1560;52.746;13.474;2023-08-01T15:32:02;18.80;99.90
3100;DHT22;1560;52.746;13.474;2023-08-01T15:34:30;18.90;99.90
3100;DHT22;1560;52.746;13.474;2023-08-01T15:36:59;18.90;99.90
3100;DHT22;1560;52.746;13.474;2023-08-01T15:39:28;18.90;99.90
3100;DHT22;1560;52.746;13.474;2023-08-01T15:41:56;18.90;99.90
3100;DHT22;1560;52.746;13.474;2023-08-01T15:44:25;18.90;99.90
3100;DHT22;1560;52.746;13.474;2023-08-01T15:46:53;18.80;99.90
3100;DHT22;1560;52.746;13.474;2023-08-01T15:49:22;18.80;99.90
3100;DHT22;1560;52.746;13.474;2023-08-01T15:51:50;18.80;99.90
3100;DHT22;1560;52.746;13.474;2023-08-01T15:54:19;18.90;99.90
3100;DHT22;1560;52.746;13.474;2023-08-01T15:56:47;19.00;99.90
3100;DHT22;1560;52.746;13.474;2023-08-01T15:59:16;19.00;99.90
3100;DHT22;1560;52.746;13.474;2023-08-01T16:01:44;19.00;99.90
3100;DHT22;1560;52.746;13.474;2023-08-01T16:04:13;19.10;99.90
3100;DHT22;1560;52.746;13.474;2023-08-01T16:06:42;19.00;99.90
3100;DHT22;1560;52.746;13.474;2023-08-01T16:09:10;19.00;99.90
3100;DHT22;1560;52.746;13.474;2023-08-01T16:11:39;19.10;99.90
3100;DHT22;1560;52.746;13.474;2023-08-01T16:14:07;19.10;99.90
3100;DHT22;1560;52.746;13.474;2023-08-01T16:16:36;19.10;99.90
3100;DHT22;1560;52.746;13.474;2023-08-01T16:21:42;18.90;99.90
3100;DHT22;1560;52.746;13.474;2023-08-01T16:24:11;19.00;99.90
3100;DHT22;1560;52.746;13.474;2023-08-01T16:26:40;19.00;99.90
3100;DHT22;1560;52.746;13.474;2023-08-01T16:29:08;19.00;99.90
3100;DHT22;1560;52.746;13.474;2023-08-01T16:34:27;19.10;99.90
3100;DHT22;1560;52.746;13.474;2023-08-01T16:36:56;19.00;99.90
3100;DHT22;1560;52.746;13.474;2023-08-01T16:42:02;19.10;99.90
3100;DHT22;1560;52.746;13.474;2023-08-01T16:44:31;19.10;99.90
3100;DHT22;1560;52.746;13.474;2023-08-01T16:47:00;19.10;99.90
3100;DHT22;1560;52.746;13.474;2023-08-01T16:49:29;19.10;99.90
3100;DHT22;1560;52.746;13.474;2023-08-01T16:51:57;19.10;99.90
3100;DHT22;1560;52.746;13.474;2023-08-01T16:54:26;19.10;99.90
3100;DHT22;1560;52.746;13.474;2023-08-01T16:56:54;19.00;99.90
3100;DHT22;1560;52.746;13.474;2023-08-01T16:59:23;18.90;99.90
3100;DHT22;1560;52.746;13.474;2023-08-01T17:04:29;18.80;99.90
3100;DHT22;1560;52.746;13.474;2023-08-01T17:06:58;18.70;99.90
3100;DHT22;1560;52.746;13.474;2023-08-01T17:09:28;18.60;99.90
3100;DHT22;1560;52.746;13.474;2023-08-01T17:11:57;18.60;99.90
3100;DHT22;1560;52.746;13.474;2023-08-01T17:14:28;18.60;99.90
3100;DHT22;1560;52.746;13.474;2023-08-01T17:16:56;18.50;99.90
3100;DHT22;1560;52.746;13.474;2023-08-01T17:19:25;18.40;99.90
3100;DHT22;1560;52.746;13.474;2023-08-01T17:21:54;18.40;99.90
3100;DHT22;1560;52.746;13.474;2023-08-01T17:24:22;18.40;99.90
3100;DHT22;1560;52.746;13.474;2023-08-01T17:29:29;18.20;99.90
3100;DHT22;1560;52.746;13.474;2023-08-01T17:31:57;18.20;99.90
3100;DHT22;1560;52.746;13.474;2023-08-01T17:34:26;18.20;99.90
3100;DHT22;1560;52.746;13.474;2023-08-01T17:36:55;18.10;99.90
3100;DHT22;1560;52.746;13.474;2023-08-01T17:39:23;18.20;99.90
3100;DHT22;1560;52.746;13.474;2023-08-01T17:41:52;18.10;99.90
3100;DHT22;1560;52.746;13.474;2023-08-01T17:44:22;18.00;99.90
3100;DHT22;1560;52.746;13.474;2023-08-01T17:49:29;17.90;99.90
3100;DHT22;1560;52.746;13.474;2023-08-01T17:54:35;17.90;99.90
3100;DHT22;1560;52.746;13.474;2023-08-01T17:57:04;17.90;99.90
3100;DHT22;1560;52.746;13.474;2023-08-01T17:59:33;17.90;99.90
3100;DHT22;1560;52.746;13.474;2023-08-01T18:04:43;17.90;99.90
3100;DHT22;1560;52.746;13.474;2023-08-01T18:07:12;17.90;99.90
3100;DHT22;1560;52.746;13.474;2023-08-01T18:09:40;17.90;99.90
3100;DHT22;1560;52.746;13.474;2023-08-01T18:12:09;17.90;99.90
3100;DHT22;1560;52.746;13.474;2023-08-01T18:14:38;17.90;99.90
3100;DHT22;1560;52.746;13.474;2023-08-01T18:17:07;17.90;99.90
3100;DHT22;1560;52.746;13.474;2023-08-01T18:22:13;17.90;99.90
3100;DHT22;1560;52.746;13.474;2023-08-01T18:24:42;17.80;99.90
3100;DHT22;1560;52.746;13.474;2023-08-01T18:27:11;17.80;99.90
3100;DHT22;1560;52.746;13.474;2023-08-01T18:29:40;17.80;99.90
3100;DHT22;1560;52.746;13.474;2023-08-01T18:32:09;17.70;99.90
3100;DHT22;1560;52.746;13.474;2023-08-01T18:34:39;17.70;99.90
3100;DHT22;1560;52.746;13.474;2023-08-01T18:37:07;17.70;99.90
3100;DHT22;1560;52.746;13.474;2023-08-01T18:39:36;17.70;99.90
3100;DHT22;1560;52.746;13.474;2023-08-01T18:42:05;17.60;99.90
3100;DHT22;1560;52.746;13.474;2023-08-01T18:47:10;17.60;99.90
3100;DHT22;1560;52.746;13.474;2023-08-01T18:52:15;17.50;99.90
3100;DHT22;1560;52.746;13.474;2023-08-01T18:54:45;17.40;99.90